Time,TemperatureF,DewpointF,PressureIn,WindDirection,WindDirectionDegrees,WindSpeedMPH,WindSpeedGustMPH,Humidity,HourlyPrecipIn,Conditions,Clouds,dailyrainin,SoftwareType,DateUTC
2013-06-02 00:01:00,70.6,65.7,29.91,SSW,203,0.0,0.0,84,0.00,,,0.00,WSDL version 420,2013-06-02 04:01:00,
2013-06-02 00:02:00,70.5,65.6,29.91,SSW,203,0.0,0.0,84,0.00,,,0.00,WSDL version 420,2013-06-02 04:02:00,
2013-06-02 00:07:00,70.5,65.7,29.91,SSW,203,0.0,0.0,85,0.00,,,0.00,WSDL version 420,2013-06-02 04:07:00,
2013-06-02 00:13:00,70.5,65.9,29.91,SSW,203,0.0,0.0,86,0.00,,,0.00,WSDL version 420,2013-06-02 04:13:00,
2013-06-02 00:19:00,70.3,65.8,29.91,SSW,203,0.0,0.0,86,0.00,,,0.00,WSDL version 420,2013-06-02 04:19:00,
2013-06-02 00:25:00,70.1,65.6,29.91,SSW,203,0.0,0.0,86,0.00,,,0.00,WSDL version 420,2013-06-02 04:25:00,
2013-06-02 00:31:00,69.7,65.2,29.91,SSW,203,0.0,0.0,86,0.00,,,0.00,WSDL version 420,2013-06-02 04:31:00,
2013-06-02 00:37:00,69.9,65.8,29.91,SSW,203,1.0,1.1,87,0.00,,,0.00,WSDL version 420,2013-06-02 04:37:00,
2013-06-02 00:40:00,69.9,65.6,29.91,SSW,203,0.6,1.1,86,0.00,,,0.00,WSDL version 420,2013-06-02 04:40:00,
2013-06-02 00:46:00,69.8,65.6,29.91,SW,225,0.9,1.1,87,0.00,,,0.00,WSDL version 420,2013-06-02 04:46:00,
2013-06-02 00:52:00,69.7,65.6,29.91,West,270,0.0,0.9,87,0.00,,,0.00,WSDL version 420,2013-06-02 04:52:00,
2013-06-02 00:58:00,69.6,65.7,29.91,West,270,0.0,0.0,87,0.00,,,0.00,WSDL version 420,2013-06-02 04:58:00,
2013-06-02 01:04:00,69.5,65.6,29.91,West,270,0.0,0.0,87,0.00,,,0.00,WSDL version 420,2013-06-02 05:04:00,
2013-06-02 01:10:00,69.3,65.5,29.91,West,270,1.1,1.1,88,0.00,,,0.00,WSDL version 420,2013-06-02 05:10:00,
2013-06-02 01:16:00,69.4,66.0,29.91,West,270,0.0,1.1,89,0.00,,,0.00,WSDL version 420,2013-06-02 05:16:00,
2013-06-02 01:22:00,69.3,65.7,29.91,South,180,0.0,0.0,89,0.00,,,0.00,WSDL version 420,2013-06-02 05:22:00,
2013-06-02 01:28:00,69.3,65.8,29.91,SW,225,0.0,0.0,89,0.00,,,0.00,WSDL version 420,2013-06-02 05:28:00,
2013-06-02 01:34:00,69.2,65.8,29.88,SW,225,0.0,0.0,89,0.00,,,0.00,WSDL version 420,2013-06-02 05:34:00,
2013-06-02 01:40:00,69.2,65.9,29.88,SW,225,0.0,0.0,90,0.00,,,0.00,WSDL version 420,2013-06-02 05:40:00,
2013-06-02 01:46:00,69.0,65.5,29.88,SW,225,0.0,0.0,89,0.00,,,0.00,WSDL version 420,2013-06-02 05:46:00,
2013-06-02 01:52:00,68.9,65.8,29.88,SW,225,0.7,2.2,90,0.00,,,0.00,WSDL version 420,2013-06-02 05:52:00,
2013-06-02 01:58:00,68.9,65.8,29.88,SW,225,2.5,2.5,90,0.00,,,0.00,WSDL version 420,2013-06-02 05:58:00,
2013-06-02 02:04:00,69.0,65.6,29.88,SSW,195,0.7,2.5,89,0.00,,,0.00,WSDL version 420,2013-06-02 06:04:00,
2013-06-02 02:10:00,69.2,65.8,29.88,SW,225,1.8,2.7,89,0.00,,,0.00,WSDL version 420,2013-06-02 06:10:00,
2013-06-02 02:17:00,69.3,65.8,29.88,West,270,2.2,2.7,89,0.00,,,0.00,WSDL version 420,2013-06-02 06:17:00,
2013-06-02 02:23:00,69.2,66.1,29.88,WSW,255,1.3,2.2,90,0.00,,,0.00,WSDL version 420,2013-06-02 06:23:00,
2013-06-02 02:29:00,69.1,66.1,29.88,SSW,210,0.6,3.1,90,0.00,,,0.00,WSDL version 420,2013-06-02 06:29:00,
2013-06-02 02:35:00,69.1,66.0,29.88,SW,225,1.1,2.9,90,0.00,,,0.00,WSDL version 420,2013-06-02 06:35:00,
2013-06-02 02:41:00,69.0,65.9,29.88,SW,225,0.0,1.6,90,0.00,,,0.00,WSDL version 420,2013-06-02 06:41:00,
2013-06-02 02:47:00,68.8,65.8,29.88,SW,225,0.0,1.3,90,0.00,,,0.00,WSDL version 420,2013-06-02 06:47:00,
2013-06-02 02:53:00,68.7,65.6,29.88,SW,225,0.0,0.0,90,0.00,,,0.00,WSDL version 420,2013-06-02 06:53:00,
2013-06-02 02:59:00,68.5,65.6,29.88,SW,225,0.0,0.0,90,0.00,,,0.00,WSDL version 420,2013-06-02 06:59:00,
2013-06-02 03:05:00,68.5,65.7,29.88,SW,225,0.0,0.0,90,0.00,,,0.00,WSDL version 420,2013-06-02 07:05:00,
2013-06-02 03:11:00,68.4,65.5,29.88,West,270,0.0,0.0,91,0.00,,,0.00,WSDL version 420,2013-06-02 07:11:00,
2013-06-02 03:17:00,68.4,65.7,29.85,West,270,0.0,0.0,91,0.00,,,0.00,WSDL version 420,2013-06-02 07:17:00,
2013-06-02 03:23:00,68.4,65.7,29.85,West,270,0.0,0.0,91,0.00,,,0.00,WSDL version 420,2013-06-02 07:23:00,
2013-06-02 03:29:00,68.2,65.5,29.85,SW,225,0.0,2.5,91,0.00,,,0.00,WSDL version 420,2013-06-02 07:29:00,
2013-06-02 03:35:00,68.4,65.7,29.88,SW,236,1.9,2.9,91,0.00,,,0.00,WSDL version 420,2013-06-02 07:35:00,
2013-06-02 03:41:00,68.4,65.7,29.88,WSW,248,1.3,2.5,91,0.00,,,0.00,WSDL version 420,2013-06-02 07:41:00,
2013-06-02 03:47:00,68.4,65.7,29.85,West,259,0.7,2.0,91,0.00,,,0.00,WSDL version 420,2013-06-02 07:47:00,
2013-06-02 03:53:00,68.2,65.5,29.85,SSW,203,0.0,1.3,91,0.00,,,0.00,WSDL version 420,2013-06-02 07:53:00,
2013-06-02 03:59:00,68.2,65.9,29.85,SW,225,1.1,1.1,92,0.00,,,0.00,WSDL version 420,2013-06-02 07:59:00,
2013-06-02 04:05:00,68.2,65.7,29.85,WSW,248,1.3,1.6,92,0.00,,,0.00,WSDL version 420,2013-06-02 08:05:00,
2013-06-02 04:11:00,68.2,65.8,29.85,SW,225,0.4,1.6,92,0.00,,,0.00,WSDL version 420,2013-06-02 08:11:00,
2013-06-02 04:17:00,68.0,65.3,29.88,SW,236,0.0,1.3,91,0.00,,,0.00,WSDL version 420,2013-06-02 08:17:00,
2013-06-02 04:23:00,68.0,65.7,29.88,WNW,293,0.0,1.3,92,0.00,,,0.00,WSDL version 420,2013-06-02 08:23:00,
2013-06-02 04:29:00,67.8,65.5,29.88,West,281,0.0,1.3,92,0.00,,,0.00,WSDL version 420,2013-06-02 08:29:00,
2013-06-02 04:35:00,67.7,65.4,29.85,SW,225,0.0,1.1,92,0.00,,,0.00,WSDL version 420,2013-06-02 08:35:00,
2013-06-02 04:41:00,67.6,65.2,29.85,SW,225,0.0,0.0,92,0.00,,,0.00,WSDL version 420,2013-06-02 08:41:00,
2013-06-02 04:47:00,67.6,65.3,29.88,SW,225,0.0,0.0,92,0.00,,,0.00,WSDL version 420,2013-06-02 08:47:00,
2013-06-02 04:53:00,67.6,65.4,29.88,SW,225,0.0,0.0,93,0.00,,,0.00,WSDL version 420,2013-06-02 08:53:00,
2013-06-02 04:59:00,67.6,65.2,29.88,SW,225,0.0,0.0,92,0.00,,,0.00,WSDL version 420,2013-06-02 08:59:00,
2013-06-02 05:05:00,67.5,65.5,29.85,SW,225,0.0,0.9,93,0.00,,,0.00,WSDL version 420,2013-06-02 09:05:00,
2013-06-02 05:12:00,67.4,65.2,29.85,West,270,0.0,0.0,93,0.00,,,0.00,WSDL version 420,2013-06-02 09:12:00,
2013-06-02 05:18:00,67.3,65.1,29.88,West,270,0.0,0.0,92,0.00,,,0.00,WSDL version 420,2013-06-02 09:18:00,
2013-06-02 05:24:00,67.1,64.8,29.88,West,270,0.0,0.0,92,0.00,,,0.00,WSDL version 420,2013-06-02 09:24:00,
2013-06-02 05:30:00,67.1,64.9,29.88,West,270,0.0,0.0,93,0.00,,,0.00,WSDL version 420,2013-06-02 09:30:00,
2013-06-02 05:36:00,67.2,65.1,29.85,West,270,0.0,0.0,93,0.00,,,0.00,WSDL version 420,2013-06-02 09:36:00,
2013-06-02 05:42:00,67.1,65.1,29.85,West,270,0.0,0.0,93,0.00,,,0.00,WSDL version 420,2013-06-02 09:42:00,
2013-06-02 05:48:00,67.1,65.1,29.85,West,270,0.0,0.0,93,0.00,,,0.00,WSDL version 420,2013-06-02 09:48:00,
2013-06-02 05:54:00,66.9,64.6,29.85,West,270,0.0,0.0,92,0.00,,,0.00,WSDL version 420,2013-06-02 09:54:00,
2013-06-02 06:00:00,67.3,65.2,29.85,West,270,0.0,1.3,93,0.00,,,0.00,WSDL version 420,2013-06-02 10:00:00,
2013-06-02 06:06:00,67.4,65.4,29.85,ESE,113,0.0,1.3,93,0.00,,,0.00,WSDL version 420,2013-06-02 10:06:00,
2013-06-02 06:12:00,67.5,65.6,29.85,ESE,113,0.4,1.1,94,0.00,,,0.00,WSDL version 420,2013-06-02 10:12:00,
2013-06-02 06:18:00,67.6,66.0,29.85,East,90,0.0,2.0,94,0.00,,,0.00,WSDL version 420,2013-06-02 10:18:00,
2013-06-02 06:24:00,67.8,66.2,29.85,East,90,0.6,2.2,94,0.00,,,0.00,WSDL version 420,2013-06-02 10:24:00,
2013-06-02 06:30:00,67.9,66.3,29.85,East,90,0.0,2.2,94,-99.99,,,-99.99,WSDL version 420,2013-06-02 10:30:00,
2013-06-02 06:36:00,68.2,66.5,29.85,ESE,113,0.0,0.0,94,0.00,,,0.00,WSDL version 420,2013-06-02 10:36:00,
2013-06-02 06:42:00,68.2,66.5,29.85,NNW,338,0.0,0.0,94,0.00,,,0.00,WSDL version 420,2013-06-02 10:42:00,
2013-06-02 06:48:00,68.5,66.5,29.85,WNW,293,0.0,0.0,93,0.00,,,0.00,WSDL version 420,2013-06-02 10:48:00,
2013-06-02 06:54:00,68.7,66.9,29.85,NNW,338,0.0,0.0,94,0.00,,,0.00,WSDL version 420,2013-06-02 10:54:00,
2013-06-02 07:00:00,68.9,67.2,29.85,NNW,338,0.0,0.0,94,0.00,,,0.00,WSDL version 420,2013-06-02 11:00:00,
2013-06-02 07:06:00,69.1,67.2,29.85,SE,129,0.4,2.0,93,0.00,,,0.00,WSDL version 420,2013-06-02 11:06:00,
2013-06-02 07:12:00,69.3,67.3,29.85,ESE,113,2.0,2.0,93,0.00,,,0.00,WSDL version 420,2013-06-02 11:12:00,
2013-06-02 07:18:00,69.6,67.6,29.88,SE,135,0.0,2.0,93,0.00,,,0.00,WSDL version 420,2013-06-02 11:18:00,
2013-06-02 07:24:00,70.0,67.6,29.88,SSW,210,1.8,2.2,92,0.00,,,0.00,WSDL version 420,2013-06-02 11:24:00,
2013-06-02 07:30:00,70.3,68.0,29.88,South,180,0.5,2.2,92,0.00,,,0.00,WSDL version 420,2013-06-02 11:30:00,
2013-06-02 07:36:00,70.7,68.2,29.85,NW,315,0.0,1.3,92,0.00,,,0.00,WSDL version 420,2013-06-02 11:36:00,
2013-06-02 07:42:00,71.0,68.2,29.85,South,180,0.0,1.3,91,0.00,,,0.00,WSDL version 420,2013-06-02 11:42:00,
2013-06-02 07:48:00,71.3,68.6,29.85,NNW,345,0.0,2.5,91,0.00,,,0.00,WSDL version 420,2013-06-02 11:48:00,
2013-06-02 07:54:00,71.7,68.7,29.85,SSE,158,1.1,2.5,90,0.00,,,0.00,WSDL version 420,2013-06-02 11:54:00,
2013-06-02 08:00:00,72.0,68.9,29.85,WSW,255,2.8,3.4,90,0.00,,,0.00,WSDL version 420,2013-06-02 12:00:00,
2013-06-02 08:07:00,72.6,69.2,29.85,SSE,158,2.5,3.4,89,0.00,,,0.00,WSDL version 420,2013-06-02 12:07:00,
2013-06-02 08:13:00,73.1,69.7,29.85,SSW,203,2.0,2.5,89,0.00,,,0.00,WSDL version 420,2013-06-02 12:13:00,
2013-06-02 08:19:00,73.7,69.6,29.85,SE,135,2.0,3.6,87,0.00,,,0.00,WSDL version 420,2013-06-02 12:19:00,
2013-06-02 08:25:00,73.9,69.7,29.85,West,270,0.0,2.0,87,0.00,,,0.00,WSDL version 420,2013-06-02 12:25:00,
2013-06-02 08:31:00,74.5,69.6,29.85,SE,135,0.9,3.4,84,0.00,,,0.00,WSDL version 420,2013-06-02 12:31:00,
2013-06-02 08:37:00,74.7,69.4,29.85,NE,45,1.6,3.4,83,0.00,,,0.00,WSDL version 420,2013-06-02 12:37:00,
2013-06-02 08:43:00,75.3,69.2,29.85,WNW,293,1.3,2.0,81,0.00,,,0.00,WSDL version 420,2013-06-02 12:43:00,
2013-06-02 08:49:00,75.3,68.9,29.85,South,180,2.9,2.9,81,0.00,,,0.00,WSDL version 420,2013-06-02 12:49:00,
2013-06-02 08:55:00,75.3,68.7,29.85,ESE,113,3.4,3.4,80,0.00,,,0.00,WSDL version 420,2013-06-02 12:55:00,
2013-06-02 09:01:00,75.7,69.0,29.85,SSE,165,3.1,4.3,79,0.00,,,0.00,WSDL version 420,2013-06-02 13:01:00,
2013-06-02 09:07:00,75.9,68.7,29.85,WSW,248,1.7,4.7,78,0.00,,,0.00,WSDL version 420,2013-06-02 13:07:00,
2013-06-02 09:13:00,76.0,68.7,29.85,ESE,105,1.3,4.7,78,0.00,,,0.00,WSDL version 420,2013-06-02 13:13:00,
2013-06-02 09:19:00,76.3,68.7,29.83,SW,219,1.7,2.5,78,0.00,,,0.00,WSDL version 420,2013-06-02 13:19:00,
2013-06-02 09:25:00,76.5,68.7,29.83,SE,135,2.9,3.4,76,0.00,,,0.00,WSDL version 420,2013-06-02 13:25:00,
2013-06-02 09:31:00,76.8,68.5,29.83,SE,146,3.0,3.8,75,0.00,,,0.00,WSDL version 420,2013-06-02 13:31:00,
2013-06-02 09:37:00,76.9,68.7,29.83,NE,56,2.7,3.8,75,0.00,,,0.00,WSDL version 420,2013-06-02 13:37:00,
2013-06-02 09:43:00,77.2,68.7,29.83,South,180,1.1,2.7,75,0.00,,,0.00,WSDL version 420,2013-06-02 13:43:00,
2013-06-02 09:49:00,77.6,68.9,29.83,SSE,158,2.2,2.7,74,0.00,,,0.00,WSDL version 420,2013-06-02 13:49:00,
2013-06-02 09:55:00,77.9,68.8,29.83,South,180,2.0,2.7,73,0.00,,,0.00,WSDL version 420,2013-06-02 13:55:00,
2013-06-02 10:01:00,78.1,68.9,29.83,SW,225,2.5,3.4,73,0.00,,,0.00,WSDL version 420,2013-06-02 14:01:00,
2013-06-02 10:07:00,78.2,68.8,29.83,South,188,2.3,3.4,73,0.00,,,0.00,WSDL version 420,2013-06-02 14:07:00,
2013-06-02 10:13:00,78.5,68.7,29.83,WSW,255,2.9,3.8,72,0.00,,,0.00,WSDL version 420,2013-06-02 14:13:00,
2013-06-02 10:19:00,78.9,68.7,29.83,SSW,195,2.5,3.8,69,0.00,,,0.00,WSDL version 420,2013-06-02 14:19:00,
2013-06-02 10:25:00,79.2,68.7,29.83,ESE,113,2.2,3.1,71,0.00,,,0.00,WSDL version 420,2013-06-02 14:25:00,
2013-06-02 10:31:00,79.2,68.6,29.83,South,180,0.9,3.1,70,0.00,,,0.00,WSDL version 420,2013-06-02 14:31:00,
2013-06-02 10:37:00,80.1,69.1,29.83,SSE,158,1.3,1.3,69,0.00,,,0.00,WSDL version 420,2013-06-02 14:37:00,
2013-06-02 10:43:00,80.2,69.2,29.83,SW,225,1.3,1.3,69,0.00,,,0.00,WSDL version 420,2013-06-02 14:43:00,
2013-06-02 10:49:00,80.4,68.7,29.83,SE,135,0.0,2.9,68,0.00,,,0.00,WSDL version 420,2013-06-02 14:49:00,
2013-06-02 10:55:00,80.7,69.1,29.83,West,270,3.1,4.9,69,0.00,,,0.00,WSDL version 420,2013-06-02 14:55:00,
2013-06-02 11:02:00,81.0,69.1,29.83,NE,45,0.9,4.3,66,0.00,,,0.00,WSDL version 420,2013-06-02 15:02:00,
2013-06-02 11:08:00,81.2,68.9,29.83,SW,225,2.8,4.7,66,0.00,,,0.00,WSDL version 420,2013-06-02 15:08:00,
2013-06-02 11:14:00,81.1,68.7,29.83,NNE,30,1.1,4.7,66,0.00,,,0.00,WSDL version 420,2013-06-02 15:14:00,
2013-06-02 11:20:00,81.4,69.3,29.83,SSE,150,4.0,5.4,66,0.00,,,0.00,WSDL version 420,2013-06-02 15:20:00,
2013-06-02 11:26:00,81.4,68.8,29.83,SW,214,1.9,5.4,66,0.00,,,0.00,WSDL version 420,2013-06-02 15:26:00,
2013-06-02 11:32:00,82.0,69.2,29.83,East,83,3.7,4.7,65,0.00,,,0.00,WSDL version 420,2013-06-02 15:32:00,
2013-06-02 11:38:00,82.0,69.1,29.83,South,180,3.7,4.9,64,0.00,,,0.00,WSDL version 420,2013-06-02 15:38:00,
2013-06-02 11:44:00,82.0,68.8,29.83,South,188,2.6,6.0,64,0.00,,,0.00,WSDL version 420,2013-06-02 15:44:00,
2013-06-02 11:50:00,82.9,69.3,29.83,South,169,1.1,6.0,63,0.00,,,0.00,WSDL version 420,2013-06-02 15:50:00,
2013-06-02 11:56:00,82.3,68.5,29.83,NW,326,1.9,4.9,63,0.00,,,0.00,WSDL version 420,2013-06-02 15:56:00,
2013-06-02 12:02:00,82.8,69.0,29.83,South,180,1.9,4.9,62,-99.99,,,-99.99,WSDL version 420,2013-06-02 16:02:00,
2013-06-02 12:08:00,83.0,69.3,29.83,ESE,113,3.4,3.6,63,0.00,,,0.00,WSDL version 420,2013-06-02 16:08:00,
2013-06-02 12:14:00,82.9,68.5,29.83,SSW,195,1.4,3.6,62,0.00,,,0.00,WSDL version 420,2013-06-02 16:14:00,
2013-06-02 12:20:00,83.4,69.1,29.83,SSE,158,3.7,6.3,62,0.00,,,0.00,WSDL version 420,2013-06-02 16:20:00,
2013-06-02 12:26:00,83.9,68.8,29.83,SW,230,3.5,6.3,61,0.00,,,0.00,WSDL version 420,2013-06-02 16:26:00,
2013-06-02 12:32:00,83.8,68.8,29.83,SSW,195,2.6,5.8,61,0.00,,,0.00,WSDL version 420,2013-06-02 16:32:00,
2013-06-02 12:38:00,84.8,69.7,29.83,SSW,195,3.4,3.8,61,0.00,,,0.00,WSDL version 420,2013-06-02 16:38:00,
2013-06-02 12:44:00,84.2,68.3,29.83,South,180,2.8,3.8,59,0.00,,,0.00,WSDL version 420,2013-06-02 16:44:00,
2013-06-02 12:50:00,84.5,68.6,29.83,ENE,60,2.4,7.8,58,0.00,,,0.00,WSDL version 420,2013-06-02 16:50:00,
2013-06-02 12:56:00,84.8,68.7,29.83,WSW,243,3.0,4.3,59,0.00,,,0.00,WSDL version 420,2013-06-02 16:56:00,
2013-06-02 13:02:00,84.4,68.4,29.83,WSW,240,2.5,4.3,59,0.00,,,0.00,WSDL version 420,2013-06-02 17:02:00,
2013-06-02 13:08:00,85.6,70.2,29.80,SW,225,3.0,4.3,59,0.00,,,0.00,WSDL version 420,2013-06-02 17:08:00,
2013-06-02 13:14:00,86.2,68.7,29.80,SW,225,4.1,4.7,56,0.00,,,0.00,WSDL version 420,2013-06-02 17:14:00,
2013-06-02 13:20:00,85.5,68.0,29.80,WSW,240,2.5,7.4,56,0.00,,,0.00,WSDL version 420,2013-06-02 17:20:00,
2013-06-02 13:26:00,85.3,68.1,29.80,SE,135,1.3,6.3,57,0.00,,,0.00,WSDL version 420,2013-06-02 17:26:00,
2013-06-02 13:32:00,85.1,67.5,29.80,SW,225,2.5,6.0,55,0.00,,,0.00,WSDL version 420,2013-06-02 17:32:00,
2013-06-02 13:38:00,85.9,68.4,29.80,South,176,2.4,4.0,56,0.00,,,0.00,WSDL version 420,2013-06-02 17:38:00,
2013-06-02 13:45:00,85.8,67.9,29.80,NW,323,2.2,7.6,56,0.00,,,0.00,WSDL version 420,2013-06-02 17:45:00,
2013-06-02 13:51:00,86.0,67.8,29.80,West,270,1.0,7.6,54,0.00,,,0.00,WSDL version 420,2013-06-02 17:51:00,
2013-06-02 13:57:00,86.5,67.9,29.80,SSE,150,2.9,3.1,53,0.00,,,0.00,WSDL version 420,2013-06-02 17:57:00,
2013-06-02 14:03:00,86.1,66.8,29.80,South,180,2.9,7.4,52,0.00,,,0.00,WSDL version 420,2013-06-02 18:03:00,
2013-06-02 14:09:00,86.5,67.7,29.80,South,180,2.8,4.7,54,0.00,,,0.00,WSDL version 420,2013-06-02 18:09:00,
2013-06-02 14:15:00,87.1,68.1,29.80,SW,225,1.1,4.0,53,0.00,,,0.00,WSDL version 420,2013-06-02 18:15:00,
2013-06-02 14:21:00,87.4,67.0,29.80,SSW,195,3.7,4.9,51,0.00,,,0.00,WSDL version 420,2013-06-02 18:21:00,
2013-06-02 14:27:00,87.2,67.1,29.80,SSW,210,3.4,4.7,52,0.00,,,0.00,WSDL version 420,2013-06-02 18:27:00,
2013-06-02 14:33:00,87.4,68.0,29.80,SW,233,2.7,4.7,53,0.00,,,0.00,WSDL version 420,2013-06-02 18:33:00,
2013-06-02 14:39:00,87.3,67.7,29.80,South,180,1.1,3.8,53,0.00,,,0.00,WSDL version 420,2013-06-02 18:39:00,
2013-06-02 14:45:00,87.0,66.9,29.80,West,270,2.7,3.6,51,0.00,,,0.00,WSDL version 420,2013-06-02 18:45:00,
2013-06-02 14:51:00,86.1,66.1,29.80,East,79,2.6,7.6,52,0.00,,,0.00,WSDL version 420,2013-06-02 18:51:00,
2013-06-02 14:57:00,85.6,66.6,29.80,West,270,3.4,7.6,53,0.00,,,0.00,WSDL version 420,2013-06-02 18:57:00,
2013-06-02 15:03:00,85.2,66.4,29.80,WSW,248,2.2,4.3,54,0.00,,,0.00,WSDL version 420,2013-06-02 19:03:00,
2013-06-02 15:09:00,84.9,66.6,29.80,SSE,150,1.2,3.6,54,0.00,,,0.00,WSDL version 420,2013-06-02 19:09:00,
2013-06-02 15:15:00,85.1,67.1,29.80,WSW,255,3.2,3.8,55,0.00,,,0.00,WSDL version 420,2013-06-02 19:15:00,
2013-06-02 15:21:00,85.1,67.7,29.77,SW,231,2.6,3.8,56,0.00,,,0.00,WSDL version 420,2013-06-02 19:21:00,
2013-06-02 15:27:00,84.9,67.3,29.77,WSW,240,1.3,4.0,56,0.00,,,0.00,WSDL version 420,2013-06-02 19:27:00,
2013-06-02 15:33:00,84.7,67.0,29.77,ESE,105,1.3,2.5,55,0.00,,,0.00,WSDL version 420,2013-06-02 19:33:00,
2013-06-02 15:39:00,84.5,67.1,29.77,West,263,1.8,5.8,56,0.00,,,0.00,WSDL version 420,2013-06-02 19:39:00,
2013-06-02 15:45:00,84.5,67.6,29.77,South,186,2.2,5.8,57,0.00,,,0.00,WSDL version 420,2013-06-02 19:45:00,
2013-06-02 15:51:00,84.3,67.4,29.80,SW,225,2.9,5.6,57,0.00,,,0.00,WSDL version 420,2013-06-02 19:51:00,
2013-06-02 15:57:00,83.8,67.2,29.80,SE,135,2.9,3.8,57,0.00,,,0.00,WSDL version 420,2013-06-02 19:57:00,
2013-06-02 16:03:00,83.4,66.5,29.77,ENE,75,2.2,5.6,57,0.00,,,0.00,WSDL version 420,2013-06-02 20:03:00,
2013-06-02 16:09:00,83.1,66.3,29.77,SW,225,0.0,5.6,57,0.00,,,0.00,WSDL version 420,2013-06-02 20:09:00,
2013-06-02 16:15:00,83.2,66.7,29.77,SW,225,2.9,3.8,58,0.00,,,0.00,WSDL version 420,2013-06-02 20:15:00,
2013-06-02 16:21:00,83.1,66.9,29.77,South,186,2.0,4.9,59,0.00,,,0.00,WSDL version 420,2013-06-02 20:21:00,
2013-06-02 16:27:00,83.4,67.0,29.77,South,180,1.7,4.0,58,0.00,,,0.00,WSDL version 420,2013-06-02 20:27:00,
2013-06-02 16:34:00,83.5,67.5,29.77,South,180,2.5,5.4,59,0.00,,,0.00,WSDL version 420,2013-06-02 20:34:00,
2013-06-02 16:40:00,83.4,67.5,29.77,WSW,248,1.8,2.7,59,0.00,,,0.00,WSDL version 420,2013-06-02 20:40:00,
2013-06-02 16:46:00,83.5,68.0,29.77,SSW,203,1.5,2.7,60,0.00,,,0.00,WSDL version 420,2013-06-02 20:46:00,
2013-06-02 16:52:00,83.9,68.2,29.77,SE,135,2.2,8.1,59,0.00,,,0.00,WSDL version 420,2013-06-02 20:52:00,
2013-06-02 16:58:00,84.1,68.1,29.77,South,180,2.6,8.1,58,0.00,,,0.00,WSDL version 420,2013-06-02 20:58:00,
2013-06-02 17:04:00,84.3,67.9,29.77,South,180,2.0,3.4,58,0.00,,,0.00,WSDL version 420,2013-06-02 21:04:00,
2013-06-02 17:10:00,83.7,67.4,29.77,SW,225,1.6,3.4,58,0.00,,,0.00,WSDL version 420,2013-06-02 21:10:00,
2013-06-02 17:16:00,82.9,67.3,29.77,SW,225,1.3,2.7,60,0.00,,,0.00,WSDL version 420,2013-06-02 21:16:00,
2013-06-02 17:22:00,82.8,67.0,29.77,SSE,158,1.3,3.1,59,0.00,,,0.00,WSDL version 420,2013-06-02 21:22:00,
2013-06-02 17:28:00,82.5,66.3,29.77,SW,236,1.2,3.4,58,0.00,,,0.00,WSDL version 420,2013-06-02 21:28:00,
2013-06-02 17:34:00,82.2,66.4,29.77,SW,225,1.3,3.4,60,0.00,,,0.00,WSDL version 420,2013-06-02 21:34:00,
2013-06-02 17:40:00,81.6,66.9,29.77,SW,225,1.1,1.3,62,0.00,,,0.00,WSDL version 420,2013-06-02 21:40:00,
2013-06-02 17:46:00,80.5,67.0,29.77,SW,225,1.1,1.3,65,0.00,,,0.00,WSDL version 420,2013-06-02 21:46:00,
2013-06-02 17:52:00,79.3,67.4,29.77,SW,225,1.1,1.1,69,0.00,,,0.00,WSDL version 420,2013-06-02 21:52:00,
2013-06-02 17:58:00,76.7,67.8,29.77,WSW,248,1.6,1.6,75,0.04,,,0.04,WSDL version 420,2013-06-02 21:58:00,
2013-06-02 18:04:00,75.7,68.3,29.77,SE,135,3.1,3.1,78,0.04,,,0.04,WSDL version 420,2013-06-02 22:04:00,
2013-06-02 18:10:00,75.6,68.2,29.77,WNW,293,3.1,3.1,78,0.04,,,0.04,WSDL version 420,2013-06-02 22:10:00,
2013-06-02 18:16:00,74.9,68.3,29.77,WNW,293,0.0,3.1,80,0.04,,,0.04,WSDL version 420,2013-06-02 22:16:00,
2013-06-02 18:22:00,74.8,68.5,29.77,West,270,0.0,3.1,81,0.04,,,0.04,WSDL version 420,2013-06-02 22:22:00,
2013-06-02 18:28:00,74.7,68.7,29.77,WSW,248,0.0,1.1,82,0.04,,,0.04,WSDL version 420,2013-06-02 22:28:00,
2013-06-02 18:35:00,74.2,69.1,29.77,West,281,2.0,2.5,84,0.04,,,0.04,WSDL version 420,2013-06-02 22:35:00,
2013-06-02 18:41:00,74.0,69.1,29.77,West,263,0.7,2.5,84,0.04,,,0.04,WSDL version 420,2013-06-02 22:41:00,
2013-06-02 18:47:00,73.8,69.2,29.77,WSW,248,2.7,2.7,86,0.04,,,0.04,WSDL version 420,2013-06-02 22:47:00,
2013-06-02 18:53:00,74.0,69.1,29.77,NW,315,1.1,2.7,84,0.04,,,0.04,WSDL version 420,2013-06-02 22:53:00,
2013-06-02 18:59:00,73.7,69.1,29.77,SW,225,2.2,2.7,86,0.00,,,0.04,WSDL version 420,2013-06-02 22:59:00,
2013-06-02 19:05:00,73.3,68.9,29.77,WNW,293,2.5,2.5,87,0.00,,,0.04,WSDL version 420,2013-06-02 23:05:00,
2013-06-02 19:11:00,73.5,69.1,29.77,WNW,293,2.0,2.5,87,0.00,,,0.04,WSDL version 420,2013-06-02 23:11:00,
2013-06-02 19:17:00,73.5,69.3,29.77,SSW,203,2.9,3.6,87,0.00,,,0.04,WSDL version 420,2013-06-02 23:17:00,
2013-06-02 19:23:00,73.9,69.3,29.80,WSW,248,2.2,3.6,86,0.00,,,0.04,WSDL version 420,2013-06-02 23:23:00,
2013-06-02 19:29:00,74.2,69.2,29.80,WSW,248,2.2,2.2,84,0.00,,,0.04,WSDL version 420,2013-06-02 23:29:00,
2013-06-02 19:35:00,74.1,69.0,29.80,SW,225,2.7,2.7,83,0.00,,,0.04,WSDL version 420,2013-06-02 23:35:00,
2013-06-02 19:41:00,74.5,68.7,29.80,SW,225,2.7,2.7,82,0.00,,,0.04,WSDL version 420,2013-06-02 23:41:00,
2013-06-02 19:47:00,73.8,68.7,29.80,SW,225,2.7,2.7,84,0.00,,,0.04,WSDL version 420,2013-06-02 23:47:00,
2013-06-02 19:53:00,73.7,68.7,29.80,North,-999,-999.0,-999.0,84,0.00,,,0.04,WSDL version 420,2013-06-02 23:53:00,
2013-06-02 19:59:00,73.9,67.7,29.80,South,180,1.1,1.1,82,0.00,,,0.04,WSDL version 420,2013-06-02 23:59:00,
2013-06-02 20:05:00,73.9,67.9,29.80,South,180,1.1,1.1,82,0.00,,,0.04,WSDL version 420,2013-06-03 00:05:00,
2013-06-02 20:11:00,73.8,68.4,29.80,South,180,1.1,1.1,83,0.00,,,0.04,WSDL version 420,2013-06-03 00:11:00,
2013-06-02 20:17:00,73.5,68.2,29.80,North,-999,-999.0,-999.0,83,0.00,,,0.04,WSDL version 420,2013-06-03 00:17:00,
2013-06-02 20:23:00,-999.0,-99.9,29.80,SSW,203,2.5,2.5,-999,0.00,,,0.04,WSDL version 420,2013-06-03 00:23:00,
2013-06-02 20:29:00,73.3,68.2,29.80,SW,225,0.0,2.5,84,0.00,,,0.04,WSDL version 420,2013-06-03 00:29:00,
2013-06-02 20:35:00,-999.0,-99.9,29.83,North,-999,-999.0,-999.0,-999,0.00,,,0.04,WSDL version 420,2013-06-03 00:35:00,
2013-06-02 20:41:00,73.9,67.8,29.83,South,180,3.4,3.4,81,0.00,,,0.04,WSDL version 420,2013-06-03 00:41:00,
2013-06-02 20:47:00,73.9,67.9,29.83,South,180,1.3,3.4,82,0.00,,,0.04,WSDL version 420,2013-06-03 00:47:00,
2013-06-02 20:53:00,74.1,67.8,29.83,South,180,1.3,1.3,80,0.00,,,0.04,WSDL version 420,2013-06-03 00:53:00,
2013-06-02 20:59:00,74.4,67.5,29.83,SW,225,0.0,1.3,79,0.00,,,0.04,WSDL version 420,2013-06-03 00:59:00,
2013-06-02 21:06:00,74.4,67.3,29.83,SW,225,0.0,0.0,78,0.00,,,0.04,WSDL version 420,2013-06-03 01:06:00,
2013-06-02 21:12:00,74.3,67.0,29.83,SW,225,0.9,0.9,78,0.00,,,0.04,WSDL version 420,2013-06-03 01:12:00,
2013-06-02 21:18:00,74.3,66.8,29.83,South,180,0.8,1.6,77,0.00,,,0.04,WSDL version 420,2013-06-03 01:18:00,
2013-06-02 21:24:00,73.9,66.6,29.83,SSW,203,1.1,1.6,78,0.00,,,0.04,WSDL version 420,2013-06-03 01:24:00,
2013-06-02 21:30:00,74.0,66.5,29.83,SSW,203,1.6,1.6,77,0.00,,,0.04,WSDL version 420,2013-06-03 01:30:00,
2013-06-02 21:36:00,73.7,66.4,29.83,South,180,2.9,2.9,78,0.00,,,0.04,WSDL version 420,2013-06-03 01:36:00,
2013-06-02 21:42:00,73.4,66.4,29.83,SSW,203,0.0,2.9,79,0.00,,,0.04,WSDL version 420,2013-06-03 01:42:00,
2013-06-02 21:48:00,73.0,66.3,29.83,WSW,248,2.2,2.9,79,0.00,,,0.04,WSDL version 420,2013-06-03 01:48:00,
2013-06-02 21:54:00,73.0,66.2,29.83,WSW,248,2.2,2.2,79,0.00,,,0.04,WSDL version 420,2013-06-03 01:54:00,
2013-06-02 22:00:00,73.1,66.3,29.83,SE,146,1.7,2.5,79,0.00,,,0.04,WSDL version 420,2013-06-03 02:00:00,
2013-06-02 22:06:00,73.0,66.1,29.83,SW,225,0.0,2.9,79,0.00,,,0.04,WSDL version 420,2013-06-03 02:06:00,
2013-06-02 22:12:00,72.9,66.1,29.83,SW,233,0.7,2.0,80,0.00,,,0.04,WSDL version 420,2013-06-03 02:12:00,
2013-06-02 22:18:00,72.9,66.0,29.83,SSW,203,1.1,2.0,79,0.00,,,0.04,WSDL version 420,2013-06-03 02:18:00,
2013-06-02 22:24:00,72.4,65.7,29.83,SW,236,1.0,1.1,79,0.00,,,0.04,WSDL version 420,2013-06-03 02:24:00,
2013-06-02 22:30:00,72.4,65.9,29.83,WSW,248,0.5,1.1,80,0.00,,,0.04,WSDL version 420,2013-06-03 02:30:00,
2013-06-02 22:36:00,72.6,65.9,29.83,WSW,248,0.0,1.1,80,0.00,,,0.04,WSDL version 420,2013-06-03 02:36:00,
2013-06-02 22:43:00,72.3,65.9,29.83,WSW,248,0.0,0.0,81,0.00,,,0.04,WSDL version 420,2013-06-03 02:43:00,
2013-06-02 22:49:00,72.3,65.9,29.83,SSW,203,0.9,0.9,80,0.00,,,0.04,WSDL version 420,2013-06-03 02:49:00,
2013-06-02 22:55:00,72.2,66.1,29.83,South,180,1.0,2.0,81,0.00,,,0.04,WSDL version 420,2013-06-03 02:55:00,
2013-06-02 23:01:00,72.1,65.8,29.83,SW,225,1.3,2.0,80,0.00,,,0.04,WSDL version 420,2013-06-03 03:01:00,
2013-06-02 23:07:00,72.1,65.8,29.83,SW,236,0.7,1.6,80,0.00,,,0.04,WSDL version 420,2013-06-03 03:07:00,
2013-06-02 23:13:00,72.0,65.9,29.83,SW,225,0.0,1.3,81,0.00,,,0.04,WSDL version 420,2013-06-03 03:13:00,
2013-06-02 23:19:00,71.8,65.9,29.83,SSW,203,0.0,3.1,81,0.00,,,0.04,WSDL version 420,2013-06-03 03:19:00,
2013-06-02 23:26:00,71.7,65.9,29.83,SW,225,1.1,3.1,82,0.00,,,0.04,WSDL version 420,2013-06-03 03:26:00,
2013-06-02 23:32:00,71.7,66.0,29.83,SSE,158,1.6,1.6,81,0.00,,,0.04,WSDL version 420,2013-06-03 03:32:00,
2013-06-02 23:38:00,71.8,65.9,29.83,SSE,158,1.6,1.6,82,0.00,,,0.04,WSDL version 420,2013-06-03 03:38:00,
2013-06-02 23:44:00,71.8,65.8,29.83,South,191,0.8,1.6,81,0.00,,,0.04,WSDL version 420,2013-06-03 03:44:00,
2013-06-02 23:50:00,71.7,65.8,29.83,SW,225,0.0,1.6,82,0.00,,,0.04,WSDL version 420,2013-06-03 03:50:00,
2013-06-02 23:56:00,71.6,65.6,29.83,SW,225,0.0,0.0,82,0.00,,,0.04,WSDL version 420,2013-06-03 03:56:00,